sensor_id;sensor_type;location;lat;lon;timestamp;temperature;humidity
50067;DHT22;35952;52.524;13.340;2023-10-08T00:01:41;12.20;99.90
50067;DHT22;35952;52.524;13.340;2023-10-08T00:04:08;12.20;99.90
50067;DHT22;35952;52.524;13.340;2023-10-08T00:06:35;12.20;99.90
50067;DHT22;35952;52.524;13.340;2023-10-08T00:09:01;12.20;99.90
50067;DHT22;35952;52.524;13.340;2023-10-08T00:11:31;12.20;99.90
50067;DHT22;35952;52.524;13.340;2023-10-08T00:13:57;12.20;99.90
50067;DHT22;35952;52.524;13.340;2023-10-08T00:16:22;12.20;99.90
50067;DHT22;35952;52.524;13.340;2023-10-08T00:18:48;12.20;99.90
50067;DHT22;35952;52.524;13.340;2023-10-08T00:21:21;12.20;99.90
50067;DHT22;35952;52.524;13.340;2023-10-08T00:23:52;12.10;99.90
50067;DHT22;35952;52.524;13.340;2023-10-08T00:26:21;12.10;99.90
50067;DHT22;35952;52.524;13.340;2023-10-08T00:29:02;12.00;99.90
50067;DHT22;35952;52.524;13.340;2023-10-08T00:31:47;12.00;99.90
50067;DHT22;35952;52.524;13.340;2023-10-08T00:34:18;12.00;99.90
50067;DHT22;35952;52.524;13.340;2023-10-08T00:36:46;12.00;99.90
50067;DHT22;35952;52.524;13.340;2023-10-08T00:39:13;12.00;99.90
50067;DHT22;35952;52.524;13.340;2023-10-08T00:41:46;12.00;99.90
50067;DHT22;35952;52.524;13.340;2023-10-08T00:44:14;12.00;99.90
50067;DHT22;35952;52.524;13.340;2023-10-08T00:46:43;12.10;99.90
50067;DHT22;35952;52.524;13.340;2023-10-08T00:49:15;12.10;99.90
50067;DHT22;35952;52.524;13.340;2023-10-08T00:52:04;12.00;99.90
50067;DHT22;35952;52.524;13.340;2023-10-08T00:54:51;12.00;99.90
50067;DHT22;35952;52.524;13.340;2023-10-08T00:57:18;12.00;99.90
50067;DHT22;35952;52.524;13.340;2023-10-08T00:59:47;12.00;99.90
50067;DHT22;35952;52.524;13.340;2023-10-08T01:02:22;12.00;99.90
50067;DHT22;35952;52.524;13.340;2023-10-08T01:04:50;11.90;99.90
50067;DHT22;35952;52.524;13.340;2023-10-08T01:07:16;12.00;99.90
50067;DHT22;35952;52.524;13.340;2023-10-08T01:09:42;12.00;99.90
50067;DHT22;35952;52.524;13.340;2023-10-08T01:12:17;12.00;99.90
50067;DHT22;35952;52.524;13.340;2023-10-08T01:15:05;12.00;99.90
50067;DHT22;35952;52.524;13.340;2023-10-08T01:18:03;12.00;99.90
50067;DHT22;35952;52.524;13.340;2023-10-08T01:20:40;12.00;99.90
50067;DHT22;35952;52.524;13.340;2023-10-08T01:23:18;12.00;99.90
50067;DHT22;35952;52.524;13.340;2023-10-08T01:25:48;12.00;99.90
50067;DHT22;35952;52.524;13.340;2023-10-08T01:28:17;12.00;99.90
50067;DHT22;35952;52.524;13.340;2023-10-08T01:30:51;12.00;99.90
50067;DHT22;35952;52.524;13.340;2023-10-08T01:33:20;12.00;99.90
50067;DHT22;35952;52.524;13.340;2023-10-08T01:35:53;12.00;99.90
50067;DHT22;35952;52.524;13.340;2023-10-08T01:38:19;12.10;99.90
50067;DHT22;35952;52.524;13.340;2023-10-08T01:40:49;12.10;99.90
50067;DHT22;35952;52.524;13.340;2023-10-08T01:43:18;12.10;99.90
50067;DHT22;35952;52.524;13.340;2023-10-08T01:45:45;12.10;99.90
50067;DHT22;35952;52.524;13.340;2023-10-08T01:48:14;12.00;99.90
50067;DHT22;35952;52.524;13.340;2023-10-08T01:50:48;12.00;99.90
50067;DHT22;35952;52.524;13.340;2023-10-08T01:53:15;12.00;99.90
50067;DHT22;35952;52.524;13.340;2023-10-08T01:55:41;12.10;99.90
50067;DHT22;35952;52.524;13.340;2023-10-08T01:58:18;12.00;99.90
50067;DHT22;35952;52.524;13.340;2023-10-08T02:00:45;11.90;99.90
50067;DHT22;35952;52.524;13.340;2023-10-08T02:03:12;12.00;99.90
50067;DHT22;35952;52.524;13.340;2023-10-08T02:05:41;11.90;99.90
50067;DHT22;35952;52.524;13.340;2023-10-08T02:08:08;12.00;99.90
50067;DHT22;35952;52.524;13.340;2023-10-08T02:10:34;12.00;99.90
50067;DHT22;35952;52.524;13.340;2023-10-08T02:13:00;12.00;99.90
50067;DHT22;35952;52.524;13.340;2023-10-08T02:15:27;12.00;99.90
50067;DHT22;35952;52.524;13.340;2023-10-08T02:17:52;12.00;99.90
50067;DHT22;35952;52.524;13.340;2023-10-08T02:20:20;12.00;99.90
50067;DHT22;35952;52.524;13.340;2023-10-08T02:22:47;12.00;99.90
50067;DHT22;35952;52.524;13.340;2023-10-08T02:25:15;12.00;99.90
50067;DHT22;35952;52.524;13.340;2023-10-08T02:27:40;12.00;99.90
50067;DHT22;35952;52.524;13.340;2023-10-08T02:30:07;12.00;99.90
50067;DHT22;35952;52.524;13.340;2023-10-08T02:32:35;12.00;99.90
50067;DHT22;35952;52.524;13.340;2023-10-08T02:35:02;12.00;99.90
50067;DHT22;35952;52.524;13.340;2023-10-08T02:37:28;12.00;99.90
50067;DHT22;35952;52.524;13.340;2023-10-08T02:39:53;12.00;99.90
50067;DHT22;35952;52.524;13.340;2023-10-08T02:42:20;11.90;99.90
50067;DHT22;35952;52.524;13.340;2023-10-08T02:44:47;12.00;99.90
50067;DHT22;35952;52.524;13.340;2023-10-08T02:47:12;12.00;99.90
50067;DHT22;35952;52.524;13.340;2023-10-08T02:49:46;12.00;99.90
50067;DHT22;35952;52.524;13.340;2023-10-08T02:52:14;11.90;99.90
50067;DHT22;35952;52.524;13.340;2023-10-08T02:54:41;11.90;99.90
50067;DHT22;35952;52.524;13.340;2023-10-08T02:57:06;11.90;99.90
50067;DHT22;35952;52.524;13.340;2023-10-08T02:59:39;11.90;99.90
50067;DHT22;35952;52.524;13.340;2023-10-08T03:02:13;11.90;99.90
50067;DHT22;35952;52.524;13.340;2023-10-08T03:04:41;11.90;99.90
50067;DHT22;35952;52.524;13.340;2023-10-08T03:07:11;12.00;99.90
50067;DHT22;35952;52.524;13.340;2023-10-08T03:09:46;11.90;99.90
50067;DHT22;35952;52.524;13.340;2023-10-08T03:12:15;11.90;99.90
50067;DHT22;35952;52.524;13.340;2023-10-08T03:14:42;11.90;99.90
50067;DHT22;35952;52.524;13.340;2023-10-08T03:17:15;11.90;99.90
50067;DHT22;35952;52.524;13.340;2023-10-08T03:19:48;11.90;99.90
50067;DHT22;35952;52.524;13.340;2023-10-08T03:22:13;11.90;99.90
50067;DHT22;35952;52.524;13.340;2023-10-08T03:24:44;11.80;99.90
50067;DHT22;35952;52.524;13.340;2023-10-08T03:27:13;11.80;99.90
50067;DHT22;35952;52.524;13.340;2023-10-08T03:29:46;11.80;99.90
50067;DHT22;35952;52.524;13.340;2023-10-08T03:32:13;11.90;99.90
50067;DHT22;35952;52.524;13.340;2023-10-08T03:34:47;11.90;99.90
50067;DHT22;35952;52.524;13.340;2023-10-08T03:37:15;11.90;99.90
50067;DHT22;35952;52.524;13.340;2023-10-08T03:39:49;11.90;99.90
50067;DHT22;35952;52.524;13.340;2023-10-08T03:42:34;11.90;99.90
50067;DHT22;35952;52.524;13.340;2023-10-08T03:45:00;11.90;99.90
50067;DHT22;35952;52.524;13.340;2023-10-08T03:47:37;11.90;99.90
50067;DHT22;35952;52.524;13.340;2023-10-08T03:50:05;11.90;99.90
50067;DHT22;35952;52.524;13.340;2023-10-08T03:52:31;11.90;99.90
50067;DHT22;35952;52.524;13.340;2023-10-08T03:54:56;11.90;99.90
50067;DHT22;35952;52.524;13.340;2023-10-08T03:57:40;11.90;99.90
50067;DHT22;35952;52.524;13.340;2023-10-08T04:00:13;11.90;99.90
50067;DHT22;35952;52.524;13.340;2023-10-08T04:02:53;11.90;99.90
50067;DHT22;35952;52.524;13.340;2023-10-08T04:05:26;12.00;99.90
50067;DHT22;35952;52.524;13.340;2023-10-08T04:08:09;11.90;99.90
50067;DHT22;35952;52.524;13.340;2023-10-08T04:10:59;11.80;99.90
50067;DHT22;35952;52.524;13.340;2023-10-08T04:13:34;11.80;99.90
50067;DHT22;35952;52.524;13.340;2023-10-08T04:16:04;11.70;99.90
50067;DHT22;35952;52.524;13.340;2023-10-08T04:18:30;11.80;99.90
50067;DHT22;35952;52.524;13.340;2023-10-08T04:20:55;11.70;99.90
50067;DHT22;35952;52.524;13.340;2023-10-08T04:23:30;11.70;99.90
50067;DHT22;35952;52.524;13.340;2023-10-08T04:25:56;11.70;99.90
50067;DHT22;35952;52.524;13.340;2023-10-08T04:28:23;11.70;99.90
50067;DHT22;35952;52.524;13.340;2023-10-08T04:30:53;11.70;99.90
50067;DHT22;35952;52.524;13.340;2023-10-08T04:33:19;11.70;99.90
50067;DHT22;35952;52.524;13.340;2023-10-08T04:35:46;11.70;99.90
50067;DHT22;35952;52.524;13.340;2023-10-08T04:38:23;11.70;99.90
50067;DHT22;35952;52.524;13.340;2023-10-08T04:40:49;11.70;99.90
50067;DHT22;35952;52.524;13.340;2023-10-08T04:43:21;11.70;99.90
50067;DHT22;35952;52.524;13.340;2023-10-08T04:45:57;11.70;99.90
50067;DHT22;35952;52.524;13.340;2023-10-08T04:48:23;11.70;99.90
50067;DHT22;35952;52.524;13.340;2023-10-08T04:50:50;11.70;99.90
50067;DHT22;35952;52.524;13.340;2023-10-08T04:53:30;11.60;99.90
50067;DHT22;35952;52.524;13.340;2023-10-08T04:56:01;11.60;99.90
50067;DHT22;35952;52.524;13.340;2023-10-08T04:58:40;11.60;99.90
50067;DHT22;35952;52.524;13.340;2023-10-08T05:01:12;11.50;99.90
50067;DHT22;35952;52.524;13.340;2023-10-08T05:03:50;11.50;99.90
50067;DHT22;35952;52.524;13.340;2023-10-08T05:06:29;11.50;99.90
50067;DHT22;35952;52.524;13.340;2023-10-08T05:11:46;11.40;99.90
50067;DHT22;35952;52.524;13.340;2023-10-08T05:14:32;11.40;99.90
50067;DHT22;35952;52.524;13.340;2023-10-08T05:17:16;11.40;99.90
50067;DHT22;35952;52.524;13.340;2023-10-08T05:19:42;11.30;99.90
50067;DHT22;35952;52.524;13.340;2023-10-08T05:22:17;11.30;99.90
50067;DHT22;35952;52.524;13.340;2023-10-08T05:24:47;11.30;99.90
50067;DHT22;35952;52.524;13.340;2023-10-08T05:27:41;11.30;99.90
50067;DHT22;35952;52.524;13.340;2023-10-08T05:30:13;11.20;99.90
50067;DHT22;35952;52.524;13.340;2023-10-08T05:32:43;11.30;99.90
50067;DHT22;35952;52.524;13.340;2023-10-08T05:35:27;11.30;99.90
50067;DHT22;35952;52.524;13.340;2023-10-08T05:38:05;11.30;99.90
50067;DHT22;35952;52.524;13.340;2023-10-08T05:40:53;11.30;99.90
50067;DHT22;35952;52.524;13.340;2023-10-08T05:43:28;11.30;99.90
50067;DHT22;35952;52.524;13.340;2023-10-08T05:46:08;11.30;99.90
50067;DHT22;35952;52.524;13.340;2023-10-08T05:48:52;11.40;99.90
50067;DHT22;35952;52.524;13.340;2023-10-08T05:51:28;11.40;99.90
50067;DHT22;35952;52.524;13.340;2023-10-08T05:54:18;11.30;99.90
50067;DHT22;35952;52.524;13.340;2023-10-08T05:57:04;11.40;99.90
50067;DHT22;35952;52.524;13.340;2023-10-08T06:02:31;11.50;99.90
50067;DHT22;35952;52.524;13.340;2023-10-08T06:05:09;11.50;99.90
50067;DHT22;35952;52.524;13.340;2023-10-08T06:07:47;11.50;99.90
50067;DHT22;35952;52.524;13.340;2023-10-08T06:10:13;11.50;99.90
50067;DHT22;35952;52.524;13.340;2023-10-08T06:13:08;11.50;99.90
50067;DHT22;35952;52.524;13.340;2023-10-08T06:15:41;11.60;99.90
50067;DHT22;35952;52.524;13.340;2023-10-08T06:18:13;11.60;99.90
50067;DHT22;35952;52.524;13.340;2023-10-08T06:20:40;11.60;99.90
50067;DHT22;35952;52.524;13.340;2023-10-08T06:23:10;11.60;99.90
50067;DHT22;35952;52.524;13.340;2023-10-08T06:25:38;11.70;99.90
50067;DHT22;35952;52.524;13.340;2023-10-08T06:28:12;11.90;99.90
50067;DHT22;35952;52.524;13.340;2023-10-08T06:30:40;11.90;99.90
50067;DHT22;35952;52.524;13.340;2023-10-08T06:33:07;12.00;99.90
50067;DHT22;35952;52.524;13.340;2023-10-08T06:35:33;12.00;99.90
50067;DHT22;35952;52.524;13.340;2023-10-08T06:37:59;12.00;99.90
50067;DHT22;35952;52.524;13.340;2023-10-08T06:40:33;12.00;99.90
50067;DHT22;35952;52.524;13.340;2023-10-08T06:43:05;12.10;99.90
50067;DHT22;35952;52.524;13.340;2023-10-08T06:45:39;12.20;99.90
50067;DHT22;35952;52.524;13.340;2023-10-08T06:48:06;12.20;99.90
50067;DHT22;35952;52.524;13.340;2023-10-08T06:50:35;12.20;99.90
50067;DHT22;35952;52.524;13.340;2023-10-08T06:53:04;12.30;99.90
50067;DHT22;35952;52.524;13.340;2023-10-08T06:55:36;12.40;99.90
50067;DHT22;35952;52.524;13.340;2023-10-08T06:58:02;12.50;99.90
50067;DHT22;35952;52.524;13.340;2023-10-08T07:00:32;12.50;99.90
50067;DHT22;35952;52.524;13.340;2023-10-08T07:03:04;12.50;99.90
50067;DHT22;35952;52.524;13.340;2023-10-08T07:05:32;12.50;99.90
50067;DHT22;35952;52.524;13.340;2023-10-08T07:08:02;12.50;99.90
50067;DHT22;35952;52.524;13.340;2023-10-08T07:10:35;12.50;99.90
50067;DHT22;35952;52.524;13.340;2023-10-08T07:13:01;12.50;99.90
50067;DHT22;35952;52.524;13.340;2023-10-08T07:15:29;12.50;99.90
50067;DHT22;35952;52.524;13.340;2023-10-08T07:17:56;12.50;99.90
50067;DHT22;35952;52.524;13.340;2023-10-08T07:20:21;12.60;99.90
50067;DHT22;35952;52.524;13.340;2023-10-08T07:22:51;12.60;99.90
50067;DHT22;35952;52.524;13.340;2023-10-08T07:25:22;12.60;99.90
50067;DHT22;35952;52.524;13.340;2023-10-08T07:27:48;12.70;99.90
50067;DHT22;35952;52.524;13.340;2023-10-08T07:30:14;12.60;99.90
50067;DHT22;35952;52.524;13.340;2023-10-08T07:32:52;12.70;99.90
50067;DHT22;35952;52.524;13.340;2023-10-08T07:35:20;12.80;99.90
50067;DHT22;35952;52.524;13.340;2023-10-08T07:37:45;12.80;99.90
50067;DHT22;35952;52.524;13.340;2023-10-08T07:40:12;12.90;99.90
50067;DHT22;35952;52.524;13.340;2023-10-08T07:42:39;13.80;99.90
50067;DHT22;35952;52.524;13.340;2023-10-08T07:45:04;15.60;99.90
50067;DHT22;35952;52.524;13.340;2023-10-08T07:47:30;16.80;99.90
50067;DHT22;35952;52.524;13.340;2023-10-08T07:49:56;16.80;99.90
50067;DHT22;35952;52.524;13.340;2023-10-08T07:52:24;16.70;99.90
50067;DHT22;35952;52.524;13.340;2023-10-08T07:55:14;16.70;99.90
50067;DHT22;35952;52.524;13.340;2023-10-08T07:57:42;17.10;99.90
50067;DHT22;35952;52.524;13.340;2023-10-08T08:00:08;18.80;99.90
50067;DHT22;35952;52.524;13.340;2023-10-08T08:02:44;19.60;99.90
50067;DHT22;35952;52.524;13.340;2023-10-08T08:05:10;20.80;99.90
50067;DHT22;35952;52.524;13.340;2023-10-08T08:07:35;21.90;99.90
50067;DHT22;35952;52.524;13.340;2023-10-08T08:10:02;21.10;99.90
50067;DHT22;35952;52.524;13.340;2023-10-08T08:12:36;19.90;99.90
50067;DHT22;35952;52.524;13.340;2023-10-08T08:15:03;18.80;99.90
50067;DHT22;35952;52.524;13.340;2023-10-08T08:17:43;17.70;99.90
50067;DHT22;35952;52.524;13.340;2023-10-08T08:20:09;16.80;99.90
50067;DHT22;35952;52.524;13.340;2023-10-08T08:22:44;16.10;99.90
50067;DHT22;35952;52.524;13.340;2023-10-08T08:25:19;15.60;99.90
50067;DHT22;35952;52.524;13.340;2023-10-08T08:28:00;15.20;99.90
50067;DHT22;35952;52.524;13.340;2023-10-08T08:30:25;15.00;99.90
50067;DHT22;35952;52.524;13.340;2023-10-08T08:32:51;14.70;99.90
50067;DHT22;35952;52.524;13.340;2023-10-08T08:35:17;14.50;99.90
50067;DHT22;35952;52.524;13.340;2023-10-08T08:37:45;14.40;99.90
50067;DHT22;35952;52.524;13.340;2023-10-08T08:40:12;14.20;99.90
50067;DHT22;35952;52.524;13.340;2023-10-08T08:42:44;14.10;99.90
50067;DHT22;35952;52.524;13.340;2023-10-08T08:45:13;14.00;99.90
50067;DHT22;35952;52.524;13.340;2023-10-08T08:47:40;14.00;99.90
50067;DHT22;35952;52.524;13.340;2023-10-08T08:50:10;14.00;99.90
50067;DHT22;35952;52.524;13.340;2023-10-08T08:52:36;13.90;99.90
50067;DHT22;35952;52.524;13.340;2023-10-08T08:55:03;13.80;99.90
50067;DHT22;35952;52.524;13.340;2023-10-08T08:57:32;13.80;99.90
50067;DHT22;35952;52.524;13.340;2023-10-08T08:59:59;13.80;99.90
50067;DHT22;35952;52.524;13.340;2023-10-08T09:02:24;13.80;99.90
50067;DHT22;35952;52.524;13.340;2023-10-08T09:04:50;13.80;99.90
50067;DHT22;35952;52.524;13.340;2023-10-08T09:07:23;13.80;99.90
50067;DHT22;35952;52.524;13.340;2023-10-08T09:09:48;13.80;99.90
50067;DHT22;35952;52.524;13.340;2023-10-08T09:12:16;13.80;99.90
50067;DHT22;35952;52.524;13.340;2023-10-08T09:14:42;13.80;99.90
50067;DHT22;35952;52.524;13.340;2023-10-08T09:17:10;13.80;99.90
50067;DHT22;35952;52.524;13.340;2023-10-08T09:19:36;13.90;99.90
50067;DHT22;35952;52.524;13.340;2023-10-08T09:22:04;13.90;99.90
50067;DHT22;35952;52.524;13.340;2023-10-08T09:24:31;13.90;99.90
50067;DHT22;35952;52.524;13.340;2023-10-08T09:26:59;14.00;99.90
50067;DHT22;35952;52.524;13.340;2023-10-08T09:29:25;14.00;99.90
50067;DHT22;35952;52.524;13.340;2023-10-08T09:31:53;14.00;99.90
50067;DHT22;35952;52.524;13.340;2023-10-08T09:34:21;14.00;99.90
50067;DHT22;35952;52.524;13.340;2023-10-08T09:36:48;13.90;99.90
50067;DHT22;35952;52.524;13.340;2023-10-08T09:39:15;13.90;99.90
50067;DHT22;35952;52.524;13.340;2023-10-08T09:41:50;14.00;99.90
50067;DHT22;35952;52.524;13.340;2023-10-08T09:44:18;14.00;99.90
50067;DHT22;35952;52.524;13.340;2023-10-08T09:46:48;14.00;99.90
50067;DHT22;35952;52.524;13.340;2023-10-08T09:49:16;14.10;99.90
50067;DHT22;35952;52.524;13.340;2023-10-08T09:51:44;14.20;99.90
50067;DHT22;35952;52.524;13.340;2023-10-08T09:54:30;14.20;99.90
50067;DHT22;35952;52.524;13.340;2023-10-08T09:56:59;14.20;99.90
50067;DHT22;35952;52.524;13.340;2023-10-08T09:59:27;14.30;99.90
50067;DHT22;35952;52.524;13.340;2023-10-08T10:01:55;14.40;99.90
50067;DHT22;35952;52.524;13.340;2023-10-08T10:04:25;14.40;99.90
50067;DHT22;35952;52.524;13.340;2023-10-08T10:06:50;14.40;99.90
50067;DHT22;35952;52.524;13.340;2023-10-08T10:09:23;14.30;99.90
50067;DHT22;35952;52.524;13.340;2023-10-08T10:11:50;14.50;99.90
50067;DHT22;35952;52.524;13.340;2023-10-08T10:14:15;14.50;99.90
50067;DHT22;35952;52.524;13.340;2023-10-08T10:16:43;14.60;99.90
50067;DHT22;35952;52.524;13.340;2023-10-08T10:19:17;14.60;99.90
50067;DHT22;35952;52.524;13.340;2023-10-08T10:21:43;14.50;99.90
50067;DHT22;35952;52.524;13.340;2023-10-08T10:24:32;14.50;99.90
50067;DHT22;35952;52.524;13.340;2023-10-08T10:27:13;14.30;99.90
50067;DHT22;35952;52.524;13.340;2023-10-08T10:29:43;14.50;99.90
50067;DHT22;35952;52.524;13.340;2023-10-08T10:32:12;14.70;99.90
50067;DHT22;35952;52.524;13.340;2023-10-08T10:34:42;14.80;99.90
50067;DHT22;35952;52.524;13.340;2023-10-08T10:37:08;14.80;99.90
50067;DHT22;35952;52.524;13.340;2023-10-08T10:39:35;14.80;99.90
50067;DHT22;35952;52.524;13.340;2023-10-08T10:42:05;14.80;99.90
50067;DHT22;35952;52.524;13.340;2023-10-08T10:44:44;14.90;99.70
50067;DHT22;35952;52.524;13.340;2023-10-08T10:47:10;14.80;99.00
50067;DHT22;35952;52.524;13.340;2023-10-08T10:49:58;14.90;98.30
50067;DHT22;35952;52.524;13.340;2023-10-08T10:52:33;15.10;98.40
50067;DHT22;35952;52.524;13.340;2023-10-08T10:55:11;15.10;97.20
50067;DHT22;35952;52.524;13.340;2023-10-08T10:57:50;15.00;96.30
50067;DHT22;35952;52.524;13.340;2023-10-08T11:00:25;15.20;98.20
50067;DHT22;35952;52.524;13.340;2023-10-08T11:03:01;15.20;97.80
50067;DHT22;35952;52.524;13.340;2023-10-08T11:05:42;15.20;96.50
50067;DHT22;35952;52.524;13.340;2023-10-08T11:08:13;15.30;96.60
50067;DHT22;35952;52.524;13.340;2023-10-08T11:10:42;15.40;97.40
50067;DHT22;35952;52.524;13.340;2023-10-08T11:13:14;15.40;97.60
50067;DHT22;35952;52.524;13.340;2023-10-08T11:15:44;15.40;96.20
50067;DHT22;35952;52.524;13.340;2023-10-08T11:18:19;15.50;95.00
50067;DHT22;35952;52.524;13.340;2023-10-08T11:20:46;15.40;94.50
50067;DHT22;35952;52.524;13.340;2023-10-08T11:23:35;15.40;95.40
50067;DHT22;35952;52.524;13.340;2023-10-08T11:26:03;15.70;96.00
50067;DHT22;35952;52.524;13.340;2023-10-08T11:31:05;17.10;91.30
50067;DHT22;35952;52.524;13.340;2023-10-08T11:33:38;17.20;91.70
50067;DHT22;35952;52.524;13.340;2023-10-08T11:36:05;17.00;90.00
50067;DHT22;35952;52.524;13.340;2023-10-08T11:38:51;16.70;90.80
50067;DHT22;35952;52.524;13.340;2023-10-08T11:41:19;16.60;91.00
50067;DHT22;35952;52.524;13.340;2023-10-08T11:43:52;16.50;91.50
50067;DHT22;35952;52.524;13.340;2023-10-08T11:46:28;16.40;92.60
50067;DHT22;35952;52.524;13.340;2023-10-08T11:48:59;16.30;90.50
50067;DHT22;35952;52.524;13.340;2023-10-08T11:51:32;16.20;89.30
50067;DHT22;35952;52.524;13.340;2023-10-08T11:54:02;16.10;86.50
50067;DHT22;35952;52.524;13.340;2023-10-08T11:56:29;16.00;91.60
50067;DHT22;35952;52.524;13.340;2023-10-08T11:58:55;15.90;91.20
50067;DHT22;35952;52.524;13.340;2023-10-08T12:01:23;15.90;90.90
50067;DHT22;35952;52.524;13.340;2023-10-08T12:03:49;16.10;91.70
50067;DHT22;35952;52.524;13.340;2023-10-08T12:06:15;16.20;90.00
50067;DHT22;35952;52.524;13.340;2023-10-08T12:08:47;16.50;90.60
50067;DHT22;35952;52.524;13.340;2023-10-08T12:11:14;16.70;90.20
50067;DHT22;35952;52.524;13.340;2023-10-08T12:13:43;16.80;88.00
50067;DHT22;35952;52.524;13.340;2023-10-08T12:16:13;16.90;86.80
50067;DHT22;35952;52.524;13.340;2023-10-08T12:18:44;16.90;86.10
50067;DHT22;35952;52.524;13.340;2023-10-08T12:21:13;16.90;83.90
50067;DHT22;35952;52.524;13.340;2023-10-08T12:23:41;17.10;83.90
50067;DHT22;35952;52.524;13.340;2023-10-08T12:26:15;17.40;83.00
50067;DHT22;35952;52.524;13.340;2023-10-08T12:28:42;17.60;82.00
50067;DHT22;35952;52.524;13.340;2023-10-08T12:31:13;17.80;81.20
50067;DHT22;35952;52.524;13.340;2023-10-08T12:33:41;18.10;77.30
50067;DHT22;35952;52.524;13.340;2023-10-08T12:36:09;18.80;74.20
50067;DHT22;35952;52.524;13.340;2023-10-08T12:38:42;19.60;72.90
50067;DHT22;35952;52.524;13.340;2023-10-08T12:41:11;20.30;71.30
50067;DHT22;35952;52.524;13.340;2023-10-08T12:43:41;20.20;67.20
50067;DHT22;35952;52.524;13.340;2023-10-08T12:46:12;19.70;67.30
50067;DHT22;35952;52.524;13.340;2023-10-08T12:48:45;19.10;66.00
50067;DHT22;35952;52.524;13.340;2023-10-08T12:51:16;18.60;70.60
50067;DHT22;35952;52.524;13.340;2023-10-08T12:53:42;18.20;69.10
50067;DHT22;35952;52.524;13.340;2023-10-08T12:56:16;17.90;71.70
50067;DHT22;35952;52.524;13.340;2023-10-08T12:58:42;17.50;73.80
50067;DHT22;35952;52.524;13.340;2023-10-08T13:01:14;17.40;73.60
50067;DHT22;35952;52.524;13.340;2023-10-08T13:03:45;17.40;75.30
50067;DHT22;35952;52.524;13.340;2023-10-08T13:06:16;17.30;72.10
50067;DHT22;35952;52.524;13.340;2023-10-08T13:08:50;17.10;71.10
50067;DHT22;35952;52.524;13.340;2023-10-08T13:11:18;16.80;73.10
50067;DHT22;35952;52.524;13.340;2023-10-08T13:13:52;16.60;72.50
50067;DHT22;35952;52.524;13.340;2023-10-08T13:16:19;16.50;74.00
50067;DHT22;35952;52.524;13.340;2023-10-08T13:18:47;16.40;73.90
50067;DHT22;35952;52.524;13.340;2023-10-08T13:21:13;16.20;73.80
50067;DHT22;35952;52.524;13.340;2023-10-08T13:23:39;16.10;74.30
50067;DHT22;35952;52.524;13.340;2023-10-08T13:26:05;16.10;74.50
50067;DHT22;35952;52.524;13.340;2023-10-08T13:28:33;16.30;74.70
50067;DHT22;35952;52.524;13.340;2023-10-08T13:31:00;16.60;75.30
50067;DHT22;35952;52.524;13.340;2023-10-08T13:33:26;16.70;73.60
50067;DHT22;35952;52.524;13.340;2023-10-08T13:35:52;16.50;73.10
50067;DHT22;35952;52.524;13.340;2023-10-08T13:38:18;16.20;76.50
50067;DHT22;35952;52.524;13.340;2023-10-08T13:40:45;16.10;78.60
50067;DHT22;35952;52.524;13.340;2023-10-08T13:43:28;16.00;79.60
50067;DHT22;35952;52.524;13.340;2023-10-08T13:46:00;15.90;79.20
50067;DHT22;35952;52.524;13.340;2023-10-08T13:48:30;15.90;77.30
50067;DHT22;35952;52.524;13.340;2023-10-08T13:50:59;15.70;76.30
50067;DHT22;35952;52.524;13.340;2023-10-08T13:53:25;15.70;77.20
50067;DHT22;35952;52.524;13.340;2023-10-08T13:55:58;15.80;77.60
50067;DHT22;35952;52.524;13.340;2023-10-08T13:58:26;15.90;77.60
50067;DHT22;35952;52.524;13.340;2023-10-08T14:00:54;16.00;76.90
50067;DHT22;35952;52.524;13.340;2023-10-08T14:03:19;16.00;76.70
50067;DHT22;35952;52.524;13.340;2023-10-08T14:05:48;16.00;77.00
50067;DHT22;35952;52.524;13.340;2023-10-08T14:08:18;16.00;81.60
50067;DHT22;35952;52.524;13.340;2023-10-08T14:10:44;15.90;77.60
50067;DHT22;35952;52.524;13.340;2023-10-08T14:13:10;16.00;76.40
50067;DHT22;35952;52.524;13.340;2023-10-08T14:15:35;16.00;77.40
50067;DHT22;35952;52.524;13.340;2023-10-08T14:18:08;16.10;79.00
50067;DHT22;35952;52.524;13.340;2023-10-08T14:20:36;16.10;76.50
50067;DHT22;35952;52.524;13.340;2023-10-08T14:23:06;16.10;77.60
50067;DHT22;35952;52.524;13.340;2023-10-08T14:25:31;16.10;79.70
50067;DHT22;35952;52.524;13.340;2023-10-08T14:27:59;16.00;77.70
50067;DHT22;35952;52.524;13.340;2023-10-08T14:30:33;15.90;78.30
50067;DHT22;35952;52.524;13.340;2023-10-08T14:33:00;15.80;77.70
50067;DHT22;35952;52.524;13.340;2023-10-08T14:35:29;15.60;80.70
50067;DHT22;35952;52.524;13.340;2023-10-08T14:38:13;15.50;80.50
50067;DHT22;35952;52.524;13.340;2023-10-08T14:40:57;15.50;79.00
50067;DHT22;35952;52.524;13.340;2023-10-08T14:43:40;15.60;79.90
50067;DHT22;35952;52.524;13.340;2023-10-08T14:46:08;15.50;79.40
50067;DHT22;35952;52.524;13.340;2023-10-08T14:48:35;15.40;77.20
50067;DHT22;35952;52.524;13.340;2023-10-08T14:51:03;15.30;79.30
50067;DHT22;35952;52.524;13.340;2023-10-08T14:53:29;15.20;77.40
50067;DHT22;35952;52.524;13.340;2023-10-08T14:55:56;15.10;79.00
50067;DHT22;35952;52.524;13.340;2023-10-08T14:58:23;14.90;81.00
50067;DHT22;35952;52.524;13.340;2023-10-08T15:00:48;14.90;86.00
50067;DHT22;35952;52.524;13.340;2023-10-08T15:03:14;14.80;84.70
50067;DHT22;35952;52.524;13.340;2023-10-08T15:05:39;14.80;85.00
50067;DHT22;35952;52.524;13.340;2023-10-08T15:08:08;14.90;85.50
50067;DHT22;35952;52.524;13.340;2023-10-08T15:10:40;14.90;81.70
50067;DHT22;35952;52.524;13.340;2023-10-08T15:13:06;14.90;81.20
50067;DHT22;35952;52.524;13.340;2023-10-08T15:15:32;14.90;81.90
50067;DHT22;35952;52.524;13.340;2023-10-08T15:18:00;14.90;81.80
50067;DHT22;35952;52.524;13.340;2023-10-08T15:20:29;14.90;80.30
50067;DHT22;35952;52.524;13.340;2023-10-08T15:22:57;14.80;80.60
50067;DHT22;35952;52.524;13.340;2023-10-08T15:25:23;14.80;81.10
50067;DHT22;35952;52.524;13.340;2023-10-08T15:27:48;14.80;80.00
50067;DHT22;35952;52.524;13.340;2023-10-08T15:30:16;14.80;80.90
50067;DHT22;35952;52.524;13.340;2023-10-08T15:32:45;14.70;79.70
50067;DHT22;35952;52.524;13.340;2023-10-08T15:35:12;14.70;80.80
50067;DHT22;35952;52.524;13.340;2023-10-08T15:37:40;14.60;80.90
50067;DHT22;35952;52.524;13.340;2023-10-08T15:40:07;14.60;81.70
50067;DHT22;35952;52.524;13.340;2023-10-08T15:42:34;14.60;82.20
50067;DHT22;35952;52.524;13.340;2023-10-08T15:45:04;14.50;83.40